Time;durP1;ratioP1;P1;durP2;ratioP2;P2;SDS_P1;SDS_P2;PMS_P1;PMS_P2;Temp;Humidity;BMP_temperature;BMP_pressure;BME280_temperature;BME280_humidity;BME280_pressure;Samples;Min_cycle;Max_cycle;Signal;HPM_P1;HPM_P2
2020/12/16 00:02:16;;;;;;;9.00;7.73;;;7.60;99.90;;;;;;5035498;28;20470;-72
2020/12/16 00:04:43;;;;;;;10.53;8.30;;;7.60;99.90;;;;;;5035728;28;20477;-72
2020/12/16 00:07:09;;;;;;;12.20;8.07;;;7.50;99.90;;;;;;5035562;28;20453;-71
2020/12/16 00:09:35;;;;;;;8.90;7.33;;;7.50;99.90;;;;;;5035184;28;20442;-72
2020/12/16 00:12:03;;;;;;;10.70;8.17;;;7.50;99.90;;;;;;5035416;28;20466;-71
2020/12/16 00:14:29;;;;;;;10.57;7.97;;;7.60;99.90;;;;;;5035556;28;20439;-71
2020/12/16 00:16:55;;;;;;;12.03;8.63;;;7.60;99.90;;;;;;5035404;28;20454;-71
2020/12/16 00:19:21;;;;;;;11.37;8.33;;;7.60;99.90;;;;;;5035456;28;20450;-71
2020/12/16 00:21:47;;;;;;;10.63;8.47;;;7.60;99.90;;;;;;5035292;28;20463;-71
2020/12/16 00:24:13;;;;;;;9.00;8.03;;;7.60;99.90;;;;;;5034858;28;21021;-71
2020/12/16 00:26:41;;;;;;;9.87;8.33;;;7.50;99.90;;;;;;5035080;28;20529;-72
2020/12/16 00:29:08;;;;;;;10.00;8.10;;;7.40;99.90;;;;;;5034900;28;20451;-72
2020/12/16 00:31:35;;;;;;;12.30;8.73;;;7.30;99.90;;;;;;5034992;28;20470;-71
2020/12/16 00:34:01;;;;;;;10.93;8.90;;;7.20;99.90;;;;;;5034730;28;20501;-71
2020/12/16 00:36:27;;;;;;;10.47;7.83;;;7.30;99.90;;;;;;5035160;28;20450;-71
2020/12/16 00:38:53;;;;;;;9.33;8.07;;;7.30;99.90;;;;;;5034962;28;20447;-72
2020/12/16 00:41:19;;;;;;;9.47;7.80;;;7.20;99.90;;;;;;5034867;28;20466;-71
2020/12/16 00:43:45;;;;;;;10.30;7.23;;;7.20;99.90;;;;;;5034822;28;20479;-71
2020/12/16 00:46:14;;;;;;;9.33;7.90;;;7.10;99.90;;;;;;5034822;28;20446;-71
2020/12/16 00:48:40;;;;;;;10.57;9.13;;;7.10;99.90;;;;;;5034813;28;20442;-71
2020/12/16 00:51:06;;;;;;;10.13;7.87;;;7.00;99.90;;;;;;5034381;28;20466;-71
2020/12/16 00:53:33;;;;;;;10.90;7.70;;;7.00;99.90;;;;;;5034355;28;20469;-71
2020/12/16 00:55:59;;;;;;;12.30;8.40;;;7.00;99.90;;;;;;5034291;28;20878;-71
2020/12/16 00:58:25;;;;;;;10.10;8.53;;;7.10;99.90;;;;;;5034572;28;20450;-71
2020/12/16 01:00:51;;;;;;;11.40;8.73;;;7.10;99.90;;;;;;5034491;28;20463;-71
2020/12/16 01:03:18;;;;;;;9.60;7.63;;;7.20;99.90;;;;;;5034438;28;20475;-71
2020/12/16 01:05:44;;;;;;;10.63;8.67;;;7.20;99.90;;;;;;5034472;28;20780;-71
2020/12/16 01:08:10;;;;;;;10.53;8.10;;;7.30;99.90;;;;;;5034162;28;20454;-71
2020/12/16 01:10:36;;;;;;;13.67;8.90;;;7.30;99.90;;;;;;5034336;28;20516;-71
2020/12/16 01:13:03;;;;;;;11.10;8.33;;;7.50;99.90;;;;;;5034368;28;20438;-71
2020/12/16 01:15:29;;;;;;;10.07;8.30;;;7.50;99.90;;;;;;5034290;28;20859;-71
2020/12/16 01:17:55;;;;;;;10.60;8.20;;;7.40;99.90;;;;;;5034264;28;20465;-71
2020/12/16 01:20:22;;;;;;;11.20;8.27;;;7.40;99.90;;;;;;5033437;28;20446;-71
2020/12/16 01:22:49;;;;;;;12.13;7.90;;;7.40;99.90;;;;;;5033803;28;20489;-71
2020/12/16 01:25:17;;;;;;;10.70;8.70;;;7.40;99.90;;;;;;5033743;28;20821;-71
2020/12/16 01:27:43;;;;;;;9.37;8.30;;;7.40;99.90;;;;;;5034157;28;20435;-71
2020/12/16 01:30:11;;;;;;;11.93;7.80;;;7.40;99.90;;;;;;5033982;28;20450;-71
2020/12/16 01:32:38;;;;;;;9.63;7.73;;;7.40;99.90;;;;;;5034011;28;20443;-71
2020/12/16 01:35:05;;;;;;;11.30;8.80;;;7.40;99.90;;;;;;5033612;28;20818;-71
2020/12/16 01:37:32;;;;;;;11.70;8.47;;;7.40;99.90;;;;;;5033954;28;20442;-71
2020/12/16 01:39:58;;;;;;;10.57;8.93;;;7.50;99.90;;;;;;5033873;28;20443;-71
2020/12/16 01:42:24;;;;;;;12.00;9.03;;;7.40;99.90;;;;;;5033714;28;20466;-71
2020/12/16 01:44:50;;;;;;;14.90;8.90;;;7.30;99.90;;;;;;5033819;28;20439;-71
2020/12/16 01:47:17;;;;;;;9.87;7.57;;;7.30;99.90;;;;;;5034033;28;20442;-71
2020/12/16 01:49:44;;;;;;;9.93;8.10;;;7.30;99.90;;;;;;5033386;28;20446;-71
2020/12/16 01:52:14;;;;;;;8.67;7.43;;;7.30;99.90;;;;;;5033839;28;20470;-71
2020/12/16 01:54:42;;;;;;;10.10;8.40;;;7.30;99.90;;;;;;5033875;28;20810;-71
2020/12/16 01:57:11;;;;;;;10.80;8.50;;;7.30;99.90;;;;;;5033597;28;20522;-71
2020/12/16 01:59:39;;;;;;;11.27;9.33;;;7.30;99.90;;;;;;5033276;28;20942;-71
2020/12/16 02:02:08;;;;;;;10.03;8.33;;;7.30;99.90;;;;;;5033448;28;20478;-71
2020/12/16 02:04:41;;;;;;;11.03;9.07;;;7.30;99.90;;;;;;5033413;28;20498;-71
2020/12/16 02:07:09;;;;;;;11.13;8.30;;;7.30;99.90;;;;;;5033492;28;20466;-71
2020/12/16 02:09:39;;;;;;;14.70;9.00;;;7.40;99.90;;;;;;5033425;28;20450;-71
2020/12/16 02:12:10;;;;;;;13.70;9.30;;;7.40;99.90;;;;;;5033313;28;20479;-71
2020/12/16 02:14:36;;;;;;;11.13;8.47;;;7.40;99.90;;;;;;5033173;28;20964;-71
2020/12/16 02:17:03;;;;;;;10.43;8.07;;;7.40;99.90;;;;;;5033309;28;20446;-71
2020/12/16 02:19:42;;;;;;;11.37;8.13;;;7.40;99.90;;;;;;5033231;28;20454;-71
2020/12/16 02:22:10;;;;;;;9.97;8.30;;;7.40;99.90;;;;;;5033203;28;20520;-71
2020/12/16 02:24:40;;;;;;;12.47;8.37;;;7.40;99.90;;;;;;5033159;28;20537;-71
2020/12/16 02:27:08;;;;;;;12.30;8.20;;;7.40;99.90;;;;;;5033067;28;20997;-71
2020/12/16 02:29:35;;;;;;;12.77;7.70;;;7.40;99.90;;;;;;5033396;28;20442;-71
2020/12/16 02:32:03;;;;;;;10.67;7.73;;;7.40;99.90;;;;;;5035144;28;20466;-71
2020/12/16 02:34:29;;;;;;;14.37;8.87;;;7.40;99.90;;;;;;5037595;28;20435;-71
2020/12/16 02:36:55;;;;;;;11.03;8.13;;;7.40;99.90;;;;;;5036934;28;20937;-71
2020/12/16 02:39:21;;;;;;;10.60;8.10;;;7.40;99.90;;;;;;5037211;28;20451;-71
2020/12/16 02:41:48;;;;;;;13.30;8.13;;;7.40;99.90;;;;;;5036824;28;20470;-71
2020/12/16 02:44:15;;;;;;;8.80;7.63;;;7.40;99.90;;;;;;5037043;28;20474;-71
2020/12/16 02:46:41;;;;;;;12.30;7.87;;;7.40;99.90;;;;;;5037068;28;20496;-71
2020/12/16 02:49:07;;;;;;;11.60;8.10;;;7.30;99.90;;;;;;5037240;28;20447;-71
2020/12/16 02:51:33;;;;;;;10.17;7.70;;;7.30;99.90;;;;;;5036632;28;20493;-71
2020/12/16 02:53:59;;;;;;;12.43;9.30;;;7.30;99.90;;;;;;5036923;28;20446;-71
2020/12/16 02:56:26;;;;;;;11.40;7.73;;;7.30;99.90;;;;;;5036897;28;20446;-71
2020/12/16 02:58:52;;;;;;;12.10;8.50;;;7.30;99.90;;;;;;5036499;28;20453;-71
2020/12/16 03:01:19;;;;;;;11.47;8.50;;;7.40;99.90;;;;;;5036408;28;20894;-70
2020/12/16 03:03:45;;;;;;;9.67;7.50;;;7.30;99.90;;;;;;5036652;28;20474;-71
2020/12/16 03:06:15;;;;;;;11.70;7.90;;;7.40;99.90;;;;;;5036724;28;20446;-70
2020/12/16 03:08:41;;;;;;;10.37;7.10;;;7.40;99.90;;;;;;5036715;28;20477;-70
2020/12/16 03:11:07;;;;;;;12.07;7.30;;;7.40;99.90;;;;;;5036593;28;20469;-70
2020/12/16 03:13:33;;;;;;;12.90;7.20;;;7.40;99.90;;;;;;5036702;28;20942;-71
2020/12/16 03:15:59;;;;;;;10.80;8.00;;;7.40;99.90;;;;;;5036593;28;20873;-71
2020/12/16 03:18:28;;;;;;;10.13;7.17;;;7.40;99.90;;;;;;5036543;28;20450;-70
2020/12/16 03:20:55;;;;;;;8.27;6.97;;;7.30;99.90;;;;;;5036129;28;20480;-71
2020/12/16 03:23:21;;;;;;;10.03;7.70;;;7.30;99.90;;;;;;5035997;28;20475;-71
2020/12/16 03:25:47;;;;;;;11.23;7.47;;;7.30;99.90;;;;;;5036108;28;20470;-70
2020/12/16 03:28:13;;;;;;;8.30;6.63;;;7.30;99.90;;;;;;5036064;28;20446;-71
2020/12/16 03:30:39;;;;;;;11.00;7.63;;;7.30;99.90;;;;;;5036641;28;20482;-71
2020/12/16 03:33:06;;;;;;;8.57;6.37;;;7.30;99.90;;;;;;5036258;28;20496;-71
2020/12/16 03:35:33;;;;;;;8.17;6.40;;;7.40;99.90;;;;;;5036202;28;20442;-70
2020/12/16 03:37:59;;;;;;;9.47;6.80;;;7.40;99.90;;;;;;5036204;28;20446;-70
2020/12/16 03:40:25;;;;;;;9.77;6.97;;;7.30;99.90;;;;;;5035736;28;21127;-70
2020/12/16 03:42:51;;;;;;;8.73;6.50;;;7.30;99.90;;;;;;5034980;28;21060;-70
2020/12/16 03:45:17;;;;;;;8.50;6.50;;;7.40;99.90;;;;;;5036072;28;20442;-70
2020/12/16 03:47:43;;;;;;;11.20;6.97;;;7.30;99.90;;;;;;5035992;28;20447;-71
2020/12/16 03:50:10;;;;;;;12.67;7.17;;;7.30;99.90;;;;;;5035890;28;20449;-70
2020/12/16 03:52:37;;;;;;;9.80;6.47;;;7.30;99.90;;;;;;5035942;28;20788;-71
2020/12/16 03:55:03;;;;;;;9.00;6.90;;;7.20;99.90;;;;;;5035588;28;20453;-70
2020/12/16 03:57:29;;;;;;;8.47;6.30;;;7.20;99.90;;;;;;5035812;28;20454;-71
2020/12/16 03:59:55;;;;;;;6.87;5.63;;;7.20;99.90;;;;;;5035786;28;20442;-71
2020/12/16 04:02:21;;;;;;;7.60;5.70;;;7.20;99.90;;;;;;5035663;28;20470;-71
2020/12/16 04:04:48;;;;;;;8.87;5.30;;;7.20;99.90;;;;;;5035624;28;20486;-71
2020/12/16 04:07:14;;;;;;;8.50;6.33;;;7.10;99.90;;;;;;5035615;28;20454;-70
2020/12/16 04:09:41;;;;;;;7.60;6.17;;;7.10;99.90;;;;;;5035772;28;20450;-70
2020/12/16 04:12:07;;;;;;;7.97;6.27;;;7.00;99.90;;;;;;5035126;28;20873;-70
2020/12/16 04:14:33;;;;;;;6.67;5.43;;;7.00;99.90;;;;;;5035442;28;20451;-70
2020/12/16 04:16:59;;;;;;;6.97;6.20;;;6.90;99.90;;;;;;5035427;28;20443;-70
2020/12/16 04:19:25;;;;;;;9.43;6.30;;;6.90;99.90;;;;;;5035080;28;20453;-71
2020/12/16 04:21:55;;;;;;;9.70;6.33;;;6.80;99.90;;;;;;5034987;28;20895;-70
2020/12/16 04:24:21;;;;;;;10.10;7.37;;;6.80;99.90;;;;;;5035249;28;20513;-70
2020/12/16 04:26:48;;;;;;;8.03;6.83;;;6.80;99.90;;;;;;5035078;28;20919;-70
2020/12/16 04:29:14;;;;;;;10.93;7.20;;;6.90;99.90;;;;;;5035203;28;20454;-70
2020/12/16 04:31:40;;;;;;;6.67;6.00;;;6.90;99.90;;;;;;5035083;28;20478;-70
2020/12/16 04:34:07;;;;;;;8.40;6.60;;;6.90;99.90;;;;;;5035083;28;20447;-70
2020/12/16 04:36:33;;;;;;;8.40;6.77;;;6.70;99.90;;;;;;5034777;28;20446;-70
2020/12/16 04:39:00;;;;;;;8.30;6.30;;;6.60;99.90;;;;;;5034702;28;20942;-70
2020/12/16 04:41:26;;;;;;;6.50;5.43;;;6.50;99.90;;;;;;5034861;28;20468;-70
2020/12/16 04:43:55;;;;;;;6.70;5.50;;;6.40;99.90;;;;;;5034938;28;20483;-71
2020/12/16 04:46:28;;;;;;;6.73;5.40;;;6.30;99.90;;;;;;5035360;28;20455;-70
2020/12/16 04:48:54;;;;;;;6.80;5.33;;;6.20;99.90;;;;;;5034870;28;20461;-70
2020/12/16 04:51:21;;;;;;;6.10;5.00;;;6.10;99.90;;;;;;5034714;28;20544;-70
2020/12/16 04:53:47;;;;;;;7.40;5.40;;;6.20;99.90;;;;;;5034803;28;20447;-70
2020/12/16 04:56:16;;;;;;;7.30;5.37;;;6.10;99.90;;;;;;5033581;28;20493;-70
2020/12/16 04:58:42;;;;;;;7.87;5.27;;;6.10;99.90;;;;;;5034636;28;20479;-70
2020/12/16 05:01:10;;;;;;;7.23;5.13;;;6.10;99.90;;;;;;5034528;28;20538;-70
2020/12/16 05:03:36;;;;;;;5.53;4.77;;;6.00;99.90;;;;;;5034196;28;20989;-71
2020/12/16 05:06:02;;;;;;;6.83;5.00;;;6.00;99.90;;;;;;5034184;28;20953;-70
2020/12/16 05:08:29;;;;;;;5.53;4.57;;;6.00;99.90;;;;;;5034508;28;20443;-70
2020/12/16 05:10:55;;;;;;;5.23;4.53;;;6.10;99.90;;;;;;5034478;28;20477;-70
2020/12/16 05:13:22;;;;;;;5.30;4.80;;;5.90;99.90;;;;;;5034393;28;20447;-70
2020/12/16 05:15:50;;;;;;;5.30;4.30;;;5.80;99.90;;;;;;5034366;28;20458;-70
2020/12/16 05:18:18;;;;;;;5.53;4.40;;;5.80;99.90;;;;;;5034272;28;20498;-72
2020/12/16 05:20:47;;;;;;;4.93;4.43;;;5.80;99.90;;;;;;5034213;28;20470;-70
2020/12/16 05:23:15;;;;;;;4.73;4.00;;;5.70;99.90;;;;;;5034164;28;20551;-70
2020/12/16 05:25:57;;;;;;;3.93;3.50;;;5.70;99.90;;;;;;5033870;28;20478;-70
2020/12/16 05:28:27;;;;;;;6.83;3.83;;;5.70;99.90;;;;;;5033872;28;20513;-70
2020/12/16 05:30:54;;;;;;;11.30;3.80;;;5.70;99.90;;;;;;5033713;28;20558;-70
2020/12/16 05:33:22;;;;;;;13.90;4.37;;;5.70;99.90;;;;;;5033997;28;20559;-70
2020/12/16 05:35:51;;;;;;;4.40;3.43;;;5.70;99.90;;;;;;5033976;28;20536;-70
2020/12/16 05:38:17;;;;;;;3.80;3.40;;;5.70;99.90;;;;;;5033667;28;20450;-70
2020/12/16 05:40:43;;;;;;;7.83;3.73;;;5.70;99.90;;;;;;5033968;28;20478;-70
2020/12/16 05:43:22;;;;;;;4.70;3.10;;;5.60;99.90;;;;;;5033587;28;20471;-71
2020/12/16 05:45:48;;;;;;;4.87;3.50;;;5.70;99.90;;;;;;5033884;28;20434;-70
2020/12/16 05:48:14;;;;;;;6.00;3.87;;;5.70;99.90;;;;;;5033801;28;20504;-70
2020/12/16 05:50:45;;;;;;;5.23;3.87;;;5.70;99.90;;;;;;5033350;28;21013;-71
2020/12/16 05:53:14;;;;;;;3.67;3.10;;;5.70;99.90;;;;;;5033745;28;20434;-70
2020/12/16 05:55:41;;;;;;;5.60;3.50;;;5.70;99.90;;;;;;5033607;28;20451;-70
2020/12/16 05:58:12;;;;;;;4.17;3.47;;;5.70;99.90;;;;;;5033609;28;20446;-71
2020/12/16 06:00:43;;;;;;;4.47;3.33;;;5.70;99.90;;;;;;5033552;28;20520;-70
2020/12/16 06:03:16;;;;;;;4.93;3.27;;;5.70;99.90;;;;;;5033214;28;20478;-70
2020/12/16 06:05:45;;;;;;;4.40;3.83;;;5.80;99.90;;;;;;5033379;28;20491;-70
2020/12/16 06:08:12;;;;;;;3.13;2.93;;;5.80;99.90;;;;;;5033155;28;21046;-70
2020/12/16 06:10:42;;;;;;;3.93;3.30;;;5.80;99.90;;;;;;5033398;28;20483;-70
2020/12/16 06:13:13;;;;;;;4.60;3.60;;;5.80;99.90;;;;;;5033484;28;20457;-71
2020/12/16 06:15:47;;;;;;;5.00;3.87;;;5.90;99.90;;;;;;5033454;28;20524;-71
2020/12/16 06:18:16;;;;;;;8.23;3.60;;;5.90;99.90;;;;;;5033368;28;20430;-71
2020/12/16 06:20:44;;;;;;;3.90;3.40;;;5.90;99.90;;;;;;5033283;28;20463;-71
2020/12/16 06:23:22;;;;;;;6.73;4.73;;;5.90;99.90;;;;;;5033233;28;20850;-71
2020/12/16 06:25:50;;;;;;;4.50;4.00;;;5.90;99.90;;;;;;5033098;28;20478;-71
2020/12/16 06:28:17;;;;;;;5.43;3.90;;;5.90;99.90;;;;;;5033284;28;20831;-71
2020/12/16 06:30:52;;;;;;;7.23;4.53;;;5.90;99.90;;;;;;5033144;28;20454;-71
2020/12/16 06:33:27;;;;;;;6.60;4.23;;;6.00;99.90;;;;;;5033222;28;20418;-71
2020/12/16 06:35:59;;;;;;;5.20;3.97;;;6.00;99.90;;;;;;5033194;28;20458;-71
2020/12/16 06:38:26;;;;;;;4.17;3.60;;;6.00;99.90;;;;;;5033179;28;20431;-71
2020/12/16 06:40:55;;;;;;;6.20;3.57;;;6.00;99.90;;;;;;5033027;28;20529;-71
2020/12/16 06:43:38;;;;;;;4.63;4.00;;;6.00;99.90;;;;;;5033063;28;20478;-71
2020/12/16 06:46:20;;;;;;;5.63;4.50;;;6.00;99.90;;;;;;5033082;28;20446;-71
2020/12/16 06:48:46;;;;;;;5.50;4.27;;;6.10;99.90;;;;;;5031937;28;20447;-71
2020/12/16 06:51:18;;;;;;;5.37;3.30;;;6.10;99.90;;;;;;5032689;28;20863;-71
2020/12/16 06:53:45;;;;;;;3.70;3.40;;;6.00;99.90;;;;;;5033200;28;20450;-71
2020/12/16 06:56:11;;;;;;;4.17;3.33;;;6.00;99.90;;;;;;5033021;28;20457;-71
2020/12/16 06:58:38;;;;;;;6.00;3.87;;;5.90;99.90;;;;;;5033277;28;20811;-72
2020/12/16 07:01:10;;;;;;;4.33;3.80;;;6.00;99.90;;;;;;5032821;28;20977;-71
2020/12/16 07:03:37;;;;;;;6.93;4.07;;;6.00;99.90;;;;;;5032560;28;20493;-71
2020/12/16 07:06:03;;;;;;;5.83;4.07;;;6.10;99.90;;;;;;5032950;28;20501;-70
2020/12/16 07:08:30;;;;;;;6.60;4.00;;;6.00;99.90;;;;;;5032894;28;20447;-71
2020/12/16 07:10:56;;;;;;;6.17;4.37;;;6.10;99.90;;;;;;5032858;28;20568;-71
2020/12/16 07:13:28;;;;;;;4.13;3.70;;;6.10;99.90;;;;;;5033437;28;20443;-70
2020/12/16 07:16:00;;;;;;;5.77;4.00;;;6.20;99.90;;;;;;5032864;28;20435;-70
2020/12/16 07:18:39;;;;;;;5.63;3.73;;;6.30;99.90;;;;;;5033774;28;20423;-69
2020/12/16 07:21:20;;;;;;;4.30;3.13;;;6.30;99.90;;;;;;5036716;28;20476;-71
2020/12/16 07:23:51;;;;;;;3.97;3.53;;;6.20;99.90;;;;;;5036424;28;20469;-71
2020/12/16 07:26:24;;;;;;;4.77;3.50;;;6.30;99.90;;;;;;5036302;28;20485;-71
2020/12/16 07:28:50;;;;;;;4.40;3.63;;;6.30;99.90;;;;;;5036147;28;20922;-73
2020/12/16 07:31:17;;;;;;;4.80;3.57;;;6.20;99.90;;;;;;5036289;28;20469;-71
2020/12/16 07:33:44;;;;;;;5.20;3.60;;;6.20;99.90;;;;;;5036365;28;20430;-71
2020/12/16 07:36:10;;;;;;;5.37;4.13;;;6.10;99.90;;;;;;5036291;28;20430;-72
2020/12/16 07:38:37;;;;;;;4.60;3.60;;;6.10;99.90;;;;;;5035962;28;20972;-72
2020/12/16 07:41:04;;;;;;;7.57;5.10;;;6.20;99.90;;;;;;5036032;28;20978;-71
2020/12/16 07:43:31;;;;;;;7.23;5.30;;;6.20;99.90;;;;;;5036097;28;20467;-71
2020/12/16 07:46:01;;;;;;;8.73;6.10;;;6.20;99.90;;;;;;5036150;28;20449;-71
2020/12/16 07:48:28;;;;;;;5.00;4.47;;;6.20;99.90;;;;;;5035677;28;20910;-71
2020/12/16 07:50:59;;;;;;;9.33;5.77;;;6.20;99.90;;;;;;5035642;28;20878;-72
2020/12/16 07:53:25;;;;;;;7.90;4.90;;;6.20;99.90;;;;;;5035922;28;20445;-71
2020/12/16 07:55:57;;;;;;;8.97;5.20;;;6.20;99.90;;;;;;5035897;28;20446;-72
2020/12/16 07:58:24;;;;;;;6.57;4.80;;;6.20;99.90;;;;;;5035899;28;20506;-72
2020/12/16 08:00:51;;;;;;;5.97;4.30;;;6.30;99.90;;;;;;5035727;28;20809;-72
2020/12/16 08:03:17;;;;;;;5.73;4.17;;;6.20;99.90;;;;;;5035326;28;20822;-72
2020/12/16 08:05:44;;;;;;;5.90;4.20;;;6.30;99.90;;;;;;5035733;28;20446;-71
2020/12/16 08:08:10;;;;;;;7.37;4.60;;;6.30;99.90;;;;;;5035637;28;20454;-72
2020/12/16 08:10:36;;;;;;;8.60;3.70;;;6.40;99.90;;;;;;5036205;28;20467;-72
2020/12/16 08:13:02;;;;;;;6.33;4.23;;;6.50;99.90;;;;;;5035568;28;20827;-72
2020/12/16 08:15:30;;;;;;;6.40;4.17;;;6.60;99.90;;;;;;5035522;28;20450;-72
2020/12/16 08:17:56;;;;;;;6.27;3.83;;;6.70;99.90;;;;;;5035550;28;20530;-72
2020/12/16 08:20:23;;;;;;;6.20;3.80;;;6.70;99.90;;;;;;5035089;28;20969;-70
2020/12/16 08:22:55;;;;;;;4.80;3.90;;;6.80;99.90;;;;;;5035393;28;20454;-70
2020/12/16 08:25:22;;;;;;;5.20;4.30;;;6.90;99.90;;;;;;5035161;28;20482;-70
2020/12/16 08:27:50;;;;;;;6.37;4.60;;;7.00;99.90;;;;;;5034996;28;20922;-70
2020/12/16 08:30:18;;;;;;;8.97;6.07;;;7.10;99.90;;;;;;5034571;28;20907;-70
2020/12/16 08:32:57;;;;;;;7.07;5.10;;;7.30;99.90;;;;;;5034861;28;20977;-70
2020/12/16 08:35:28;;;;;;;4.97;4.27;;;7.40;99.90;;;;;;5035287;28;20443;-70
2020/12/16 08:37:56;;;;;;;5.00;3.70;;;7.60;99.90;;;;;;5035125;28;20426;-70
2020/12/16 08:40:22;;;;;;;3.97;3.60;;;7.70;99.90;;;;;;5034982;28;20473;-70
2020/12/16 08:42:49;;;;;;;4.03;3.50;;;7.90;99.90;;;;;;5034658;28;20950;-70
2020/12/16 08:45:18;;;;;;;3.73;3.40;;;8.10;99.90;;;;;;5034566;28;21017;-70
2020/12/16 08:47:44;;;;;;;4.57;3.60;;;8.10;99.90;;;;;;5034880;28;20793;-70
2020/12/16 08:50:15;;;;;;;4.37;3.63;;;8.10;99.90;;;;;;5034432;28;20831;-70
2020/12/16 08:52:44;;;;;;;5.67;3.93;;;8.20;99.90;;;;;;5034903;28;20441;-70
2020/12/16 08:55:15;;;;;;;4.10;3.70;;;8.20;99.90;;;;;;5034504;28;20477;-70
2020/12/16 08:57:53;;;;;;;5.07;4.07;;;8.10;99.90;;;;;;5034503;28;20435;-70
2020/12/16 09:00:24;;;;;;;4.40;4.00;;;8.00;99.90;;;;;;5034696;28;20512;-70
2020/12/16 09:03:07;;;;;;;4.03;2.87;;;7.90;99.90;;;;;;5034692;28;20501;-70
2020/12/16 09:05:36;;;;;;;6.23;3.47;;;7.90;99.90;;;;;;5034681;28;20427;-70
2020/12/16 09:08:08;;;;;;;3.33;3.03;;;7.90;99.90;;;;;;5034364;28;20454;-70
2020/12/16 09:10:36;;;;;;;3.67;3.20;;;8.10;99.90;;;;;;5034414;28;20462;-71
2020/12/16 09:13:16;;;;;;;4.57;3.60;;;8.30;99.90;;;;;;5034461;28;20853;-70
2020/12/16 09:15:48;;;;;;;5.20;3.17;;;8.70;99.90;;;;;;5039894;28;20614;-71
2020/12/16 09:18:15;;;;;;;4.77;2.87;;;9.20;99.90;;;;;;5034605;28;20431;-70
2020/12/16 09:20:42;;;;;;;3.20;2.90;;;9.80;99.90;;;;;;5034033;28;20466;-70
2020/12/16 09:23:08;;;;;;;2.90;2.60;;;10.60;99.90;;;;;;5034247;28;20521;-71
2020/12/16 09:25:35;;;;;;;3.10;2.47;;;12.10;99.90;;;;;;5033937;28;20481;-71
2020/12/16 09:28:02;;;;;;;2.80;2.43;;;14.10;99.90;;;;;;5034167;28;20450;-71
2020/12/16 09:30:29;;;;;;;3.77;2.40;;;16.00;99.90;;;;;;5034097;28;20466;-71
2020/12/16 09:32:56;;;;;;;3.10;2.80;;;17.90;99.90;;;;;;5034106;28;20450;-71
2020/12/16 09:35:24;;;;;;;3.00;2.80;;;19.00;95.00;;;;;;5034064;28;20450;-72
2020/12/16 09:37:51;;;;;;;4.00;3.33;;;19.60;90.00;;;;;;5033736;28;20942;-71
2020/12/16 09:40:22;;;;;;;3.57;2.63;;;20.40;84.20;;;;;;5033833;28;20446;-71
2020/12/16 09:42:57;;;;;;;3.73;3.43;;;21.60;75.00;;;;;;5033596;28;20444;-71
2020/12/16 09:45:24;;;;;;;4.10;3.40;;;22.40;69.10;;;;;;5033473;28;20481;-71
2020/12/16 09:47:51;;;;;;;3.13;2.93;;;22.70;66.10;;;;;;5033878;28;20446;-71
2020/12/16 09:50:25;;;;;;;3.22;2.92;;;23.30;62.00;;;;;;5033426;28;20302;-71
2020/12/16 09:52:57;;;;;;;3.10;2.83;;;23.60;59.90;;;;;;5033825;28;20195;-71
2020/12/16 09:55:23;;;;;;;3.10;2.83;;;24.00;58.10;;;;;;5033771;28;20219;-71
2020/12/16 09:58:00;;;;;;;3.22;3.00;;;24.10;57.30;;;;;;5033732;28;20200;-71
2020/12/16 10:00:27;;;;;;;2.78;2.42;;;24.10;57.10;;;;;;5033660;28;20183;-71
2020/12/16 10:03:00;;;;;;;2.88;2.67;;;24.20;55.90;;;;;;5033651;28;20609;-71
2020/12/16 10:05:26;;;;;;;3.10;2.67;;;24.00;55.30;;;;;;5033156;28;20218;-71
2020/12/16 10:07:52;;;;;;;3.20;2.90;;;23.40;57.70;;;;;;5033559;28;20211;-72
2020/12/16 10:10:20;;;;;;;2.72;2.53;;;23.70;57.10;;;;;;5033149;28;20675;-72
2020/12/16 10:12:46;;;;;;;2.75;2.55;;;23.90;55.70;;;;;;5033480;28;20199;-72
2020/12/16 10:15:13;;;;;;;3.38;3.15;;;24.10;56.50;;;;;;5033407;28;20207;-71
2020/12/16 10:17:39;;;;;;;3.35;3.15;;;24.60;55.30;;;;;;5033430;28;20208;-71
2020/12/16 10:20:05;;;;;;;2.50;2.30;;;25.20;53.90;;;;;;5033408;28;20200;-71
2020/12/16 10:22:32;;;;;;;2.85;2.65;;;25.90;52.40;;;;;;5033320;28;20227;-71
2020/12/16 10:24:58;;;;;;;3.45;3.17;;;26.30;51.10;;;;;;5033138;28;20273;-71
2020/12/16 10:27:28;;;;;;;2.42;2.33;;;26.70;50.90;;;;;;5033357;28;20194;-72
2020/12/16 10:29:55;;;;;;;2.95;2.75;;;27.10;49.40;;;;;;5033330;28;20193;-71
2020/12/16 10:32:21;;;;;;;3.00;2.80;;;27.80;48.30;;;;;;5032882;28;20742;-72
2020/12/16 10:34:47;;;;;;;3.50;3.20;;;28.10;47.60;;;;;;5033313;28;20238;-71
2020/12/16 10:37:13;;;;;;;3.38;3.17;;;28.30;46.60;;;;;;5033258;28;20205;-71
2020/12/16 10:39:39;;;;;;;3.47;3.28;;;28.60;45.40;;;;;;5032885;28;20242;-72
2020/12/16 10:42:05;;;;;;;3.17;2.92;;;28.80;44.70;;;;;;5033144;28;20637;-73
2020/12/16 10:44:32;;;;;;;3.35;3.05;;;28.70;43.40;;;;;;5033114;28;20221;-73
2020/12/16 10:46:59;;;;;;;3.50;3.20;;;28.70;43.90;;;;;;5032833;28;20200;-74
2020/12/16 10:49:26;;;;;;;2.72;2.63;;;28.40;44.60;;;;;;5033149;28;20230;-74
2020/12/16 10:51:54;;;;;;;3.13;2.92;;;28.60;44.40;;;;;;5033079;28;20223;-74
2020/12/16 10:54:21;;;;;;;3.70;2.90;;;28.30;44.30;;;;;;5037096;28;20206;-73
2020/12/16 10:56:52;;;;;;;3.40;3.20;;;27.90;44.50;;;;;;5037031;28;20199;-73
2020/12/16 10:59:19;;;;;;;3.38;3.13;;;27.80;44.50;;;;;;5037012;28;20278;-73
2020/12/16 11:01:46;;;;;;;3.08;2.88;;;27.00;45.80;;;;;;5036860;28;20228;-73
2020/12/16 11:04:12;;;;;;;3.17;2.95;;;25.90;47.30;;;;;;5036810;28;20215;-73
2020/12/16 11:06:44;;;;;;;3.65;3.35;;;25.70;48.20;;;;;;5036822;28;20207;-73
2020/12/16 11:09:10;;;;;;;3.25;3.05;;;25.10;49.40;;;;;;5036852;28;20239;-73
2020/12/16 11:11:40;;;;;;;3.42;3.13;;;25.20;49.60;;;;;;5036681;28;20572;-74
2020/12/16 11:14:06;;;;;;;3.65;3.35;;;25.10;49.90;;;;;;5036739;28;20217;-73
2020/12/16 11:16:32;;;;;;;3.13;2.92;;;24.70;49.70;;;;;;5036722;28;20210;-73
2020/12/16 11:18:59;;;;;;;3.83;3.53;;;23.20;52.50;;;;;;5036697;28;20206;-73
2020/12/16 11:21:26;;;;;;;3.75;3.45;;;21.90;55.00;;;;;;5036558;28;20223;-73
2020/12/16 11:23:52;;;;;;;4.55;3.63;;;20.90;57.50;;;;;;5036448;28;20222;-73
2020/12/16 11:26:19;;;;;;;3.45;3.25;;;20.40;59.30;;;;;;5036052;28;20232;-74
2020/12/16 11:28:45;;;;;;;3.65;3.35;;;20.10;59.70;;;;;;5036185;28;20204;-74
2020/12/16 11:31:11;;;;;;;3.22;3.03;;;20.30;60.10;;;;;;5036195;28;20696;-73
2020/12/16 11:33:37;;;;;;;3.15;2.95;;;21.50;58.50;;;;;;5036438;28;20566;-73
2020/12/16 11:36:08;;;;;;;3.78;3.47;;;22.60;55.80;;;;;;5036335;28;20204;-73
2020/12/16 11:38:35;;;;;;;3.50;3.20;;;24.10;52.70;;;;;;5035992;28;20187;-73
2020/12/16 11:41:01;;;;;;;2.70;2.50;;;25.20;50.80;;;;;;5035877;28;20593;-73
2020/12/16 11:43:27;;;;;;;3.33;3.10;;;25.60;49.90;;;;;;5036135;28;20273;-73
2020/12/16 11:45:53;;;;;;;3.50;3.30;;;26.40;48.50;;;;;;5036153;28;20200;-73
2020/12/16 11:48:20;;;;;;;3.50;3.30;;;26.80;48.00;;;;;;5036005;28;20210;-74
2020/12/16 11:50:46;;;;;;;2.92;2.72;;;26.80;47.30;;;;;;5036026;28;20223;-74
2020/12/16 11:53:13;;;;;;;3.03;2.72;;;26.70;47.60;;;;;;5036035;28;20208;-74
2020/12/16 11:55:40;;;;;;;2.90;2.80;;;26.20;47.80;;;;;;5035929;28;20198;-74
2020/12/16 11:58:06;;;;;;;3.25;3.03;;;24.70;48.70;;;;;;5036328;28;20214;-74
2020/12/16 12:00:32;;;;;;;3.08;2.88;;;22.60;51.90;;;;;;5035491;28;20641;-74
2020/12/16 12:02:59;;;;;;;2.60;2.40;;;20.50;55.80;;;;;;5035813;28;20207;-73
2020/12/16 12:05:25;;;;;;;2.87;2.53;;;18.80;59.20;;;;;;5035152;28;20591;-74
2020/12/16 12:07:51;;;;;;;3.83;2.63;;;17.50;63.90;;;;;;5035769;28;20438;-73
2020/12/16 12:10:18;;;;;;;7.30;3.50;;;16.50;67.70;;;;;;5035760;28;20461;-73
2020/12/16 12:12:44;;;;;;;3.23;3.00;;;15.80;70.80;;;;;;5035656;28;20447;-73
2020/12/16 12:15:11;;;;;;;3.43;2.90;;;15.30;73.10;;;;;;5035599;28;20496;-73
2020/12/16 12:17:37;;;;;;;2.33;2.17;;;14.80;77.00;;;;;;5035495;28;20454;-73
2020/12/16 12:20:04;;;;;;;3.10;2.80;;;14.30;78.80;;;;;;5035215;28;20836;-73
2020/12/16 12:22:31;;;;;;;3.30;3.10;;;14.10;80.40;;;;;;5035375;28;20512;-73
2020/12/16 12:24:57;;;;;;;2.50;2.37;;;14.00;81.00;;;;;;5034571;28;20481;-73
2020/12/16 12:27:24;;;;;;;3.53;3.23;;;13.70;82.70;;;;;;5035352;28;20435;-73
2020/12/16 12:29:51;;;;;;;2.70;2.50;;;13.60;85.10;;;;;;5035306;28;20446;-73
2020/12/16 12:32:17;;;;;;;2.73;2.53;;;13.30;87.80;;;;;;5035169;28;20469;-73
2020/12/16 12:34:43;;;;;;;2.90;2.50;;;13.20;90.50;;;;;;5035246;28;20435;-73
2020/12/16 12:37:09;;;;;;;4.10;3.70;;;13.20;91.30;;;;;;5035248;28;20504;-73
2020/12/16 12:39:35;;;;;;;2.80;2.60;;;13.10;92.10;;;;;;5035071;28;20942;-73
2020/12/16 12:42:02;;;;;;;3.37;2.43;;;13.00;93.70;;;;;;5035021;28;20470;-73
2020/12/16 12:44:29;;;;;;;2.27;1.67;;;12.80;95.70;;;;;;5034992;28;20482;-73
2020/12/16 12:46:55;;;;;;;2.20;1.97;;;12.80;96.90;;;;;;5034964;28;20450;-73
2020/12/16 12:49:21;;;;;;;2.07;1.90;;;12.80;97.70;;;;;;5035668;28;20455;-73
2020/12/16 12:51:49;;;;;;;4.87;1.87;;;12.90;98.70;;;;;;5034836;28;20458;-73
2020/12/16 12:54:15;;;;;;;2.10;1.90;;;12.70;99.90;;;;;;5034835;28;20522;-73
2020/12/16 12:56:42;;;;;;;2.73;2.43;;;12.60;99.90;;;;;;5034638;28;20422;-73